createdAt,value
2023-05-02T00:00:52.714Z,48.30
2023-05-02T00:01:52.654Z,44.74
2023-05-02T00:02:52.792Z,61.00
2023-05-02T00:03:52.764Z,48.84
2023-05-02T00:04:52.595Z,47.54
2023-05-02T00:05:52.630Z,42.51
2023-05-02T00:06:52.691Z,45.91
2023-05-02T00:07:52.562Z,44.87
2023-05-02T00:08:52.550Z,49.29
2023-05-02T00:09:52.564Z,49.49
2023-05-02T00:10:52.582Z,42.13
2023-05-02T00:11:52.539Z,42.56
2023-05-02T00:12:52.535Z,43.06
2023-05-02T00:13:52.514Z,48.24
2023-05-02T00:14:52.516Z,45.18
2023-05-02T00:15:52.489Z,44.52
2023-05-02T00:16:52.526Z,48.24
2023-05-02T00:17:52.524Z,49.70
2023-05-02T00:18:52.488Z,44.28
2023-05-02T00:19:52.470Z,51.47
2023-05-02T00:20:52.462Z,46.47
2023-05-02T00:21:52.445Z,44.37
2023-05-02T00:22:52.414Z,46.21
2023-05-02T00:23:52.417Z,51.78
2023-05-02T00:24:52.412Z,43.11
2023-05-02T00:25:52.407Z,51.72
2023-05-02T00:26:52.399Z,52.34
2023-05-02T00:27:52.373Z,47.31
2023-05-02T00:28:52.382Z,49.64
2023-05-02T00:29:52.381Z,59.94
2023-05-02T00:30:52.373Z,44.55
2023-05-02T00:31:52.364Z,43.07
2023-05-02T00:32:52.374Z,43.32
2023-05-02T00:33:52.348Z,45.89
2023-05-02T00:34:52.324Z,48.76
2023-05-02T00:35:52.367Z,49.45
2023-05-02T00:36:53.276Z,45.79
2023-05-02T00:37:52.275Z,50.38
2023-05-02T00:38:52.264Z,44.12
2023-05-02T00:39:52.253Z,42.33
2023-05-02T00:40:52.276Z,47.04
2023-05-02T00:41:52.263Z,55.08
2023-05-02T00:42:52.252Z,48.32
2023-05-02T00:43:52.212Z,47.91
2023-05-02T00:44:52.197Z,44.52
2023-05-02T00:45:52.299Z,44.37
2023-05-02T00:46:52.218Z,44.40
2023-05-02T00:47:52.202Z,45.79
2023-05-02T00:48:52.176Z,43.87
2023-05-02T00:49:52.146Z,59.54
2023-05-02T00:50:52.146Z,48.22
2023-05-02T00:51:52.174Z,49.05
2023-05-02T00:52:53.144Z,49.55
2023-05-02T00:53:52.128Z,51.02
2023-05-02T00:54:52.132Z,53.10
2023-05-02T00:55:52.100Z,51.42
2023-05-02T00:56:52.089Z,49.53
2023-05-02T00:57:53.084Z,55.35
2023-05-02T00:58:52.088Z,58.07
2023-05-02T00:59:52.053Z,46.86
2023-05-02T01:00:52.091Z,51.73
2023-05-02T01:01:52.062Z,56.03
2023-05-02T01:02:52.205Z,45.40
2023-05-02T01:03:52.206Z,48.45
2023-05-02T01:04:52.022Z,49.01
2023-05-02T01:05:51.999Z,42.83
2023-05-02T01:06:52.110Z,43.37
2023-05-02T01:07:51.956Z,46.28
2023-05-02T01:08:51.975Z,43.89
2023-05-02T01:09:51.960Z,50.27
2023-05-02T01:10:51.971Z,43.27
2023-05-02T01:11:51.933Z,44.56
2023-05-02T01:12:51.918Z,43.47
2023-05-02T01:13:51.929Z,51.94
2023-05-02T01:14:51.937Z,46.19
2023-05-02T01:15:52.004Z,46.11
2023-05-02T01:16:51.908Z,41.97
2023-05-02T01:17:51.952Z,48.14
2023-05-02T01:18:51.854Z,44.50
2023-05-02T01:19:51.848Z,43.81
2023-05-02T01:20:51.862Z,42.95
2023-05-02T01:21:51.819Z,43.27
2023-05-02T01:22:51.806Z,49.75
2023-05-02T01:23:51.812Z,45.64
2023-05-02T01:24:51.802Z,50.15
2023-05-02T01:25:51.814Z,46.32
2023-05-02T01:26:51.797Z,52.31
2023-05-02T01:27:51.767Z,43.36
2023-05-02T01:28:51.760Z,42.93
2023-05-02T01:29:51.751Z,43.58
2023-05-02T01:30:51.781Z,47.56
2023-05-02T01:31:51.754Z,44.33
2023-05-02T01:32:51.749Z,47.01
2023-05-02T01:33:51.708Z,45.81
2023-05-02T01:34:51.704Z,44.83
2023-05-02T01:35:51.715Z,53.48
2023-05-02T01:36:51.692Z,51.90
2023-05-02T01:37:52.690Z,46.54
2023-05-02T01:38:51.719Z,64.01
2023-05-02T01:39:51.651Z,60.68
2023-05-02T01:40:51.647Z,46.95
2023-05-02T01:41:51.694Z,45.71
2023-05-02T01:42:51.611Z,55.96
2023-05-02T01:43:51.620Z,47.66
2023-05-02T01:44:51.588Z,58.50
2023-05-02T01:45:51.587Z,46.93
2023-05-02T01:46:51.667Z,45.94
2023-05-02T01:47:51.632Z,44.82
2023-05-02T01:48:51.558Z,44.84
2023-05-02T01:49:51.566Z,49.04
2023-05-02T01:50:51.573Z,45.60
2023-05-02T01:51:52.553Z,47.02
2023-05-02T01:52:51.564Z,49.36
2023-05-02T01:53:51.541Z,51.12
2023-05-02T01:54:51.514Z,47.23
2023-05-02T01:55:51.493Z,52.64
2023-05-02T01:56:51.565Z,62.95
2023-05-02T01:57:51.479Z,56.33
2023-05-02T01:58:51.460Z,51.07
2023-05-02T01:59:51.460Z,49.48
2023-05-02T02:00:51.500Z,49.25
2023-05-02T02:01:51.454Z,52.34
2023-05-02T02:02:51.459Z,51.89
2023-05-02T02:03:51.554Z,50.58
2023-05-02T02:04:51.418Z,48.24
2023-05-02T02:05:51.432Z,46.03
2023-05-02T02:06:51.396Z,55.70
2023-05-02T02:07:51.427Z,50.24
2023-05-02T02:08:51.353Z,51.09
2023-05-02T02:09:51.414Z,44.75
2023-05-02T02:10:51.346Z,56.16
2023-05-02T02:11:51.439Z,49.36
2023-05-02T02:12:51.318Z,47.24
2023-05-02T02:13:51.316Z,46.71
2023-05-02T02:14:51.344Z,54.82
2023-05-02T02:15:51.304Z,51.01
2023-05-02T02:16:51.323Z,53.83
2023-05-02T02:17:51.291Z,47.17
2023-05-02T02:18:51.275Z,49.36
2023-05-02T02:19:51.266Z,57.24
2023-05-02T02:20:51.262Z,54.80
2023-05-02T02:21:51.233Z,45.55
2023-05-02T02:22:51.226Z,52.40
2023-05-02T02:23:51.219Z,53.24
2023-05-02T02:24:52.458Z,52.60
2023-05-02T02:25:51.230Z,45.29
2023-05-02T02:26:51.194Z,50.88
2023-05-02T02:27:51.177Z,51.32
2023-05-02T02:28:51.161Z,44.94
2023-05-02T02:29:51.157Z,50.11
2023-05-02T02:30:51.189Z,52.32
2023-05-02T02:31:51.133Z,46.26
2023-05-02T02:32:52.210Z,48.86
2023-05-02T02:33:51.109Z,53.31
2023-05-02T02:34:51.088Z,53.77
2023-05-02T02:35:51.109Z,56.81
2023-05-02T02:36:51.096Z,55.58
2023-05-02T02:37:51.069Z,49.14
2023-05-02T02:38:51.091Z,49.38
2023-05-02T02:39:51.051Z,50.19
2023-05-02T02:40:51.042Z,59.37
2023-05-02T02:41:51.044Z,51.14
2023-05-02T02:42:51.027Z,52.76
2023-05-02T02:43:51.039Z,52.41
2023-05-02T02:44:51.021Z,51.85
2023-05-02T02:45:51.072Z,52.71
2023-05-02T02:46:50.986Z,49.75
2023-05-02T02:47:51.052Z,47.85
2023-05-02T02:48:50.989Z,50.84
2023-05-02T02:49:50.997Z,52.14
2023-05-02T02:50:50.949Z,48.45
2023-05-02T02:51:51.007Z,53.55
2023-05-02T02:52:50.940Z,53.87
2023-05-02T02:53:51.011Z,53.87
2023-05-02T02:54:50.951Z,54.19
2023-05-02T02:55:51.001Z,55.56
2023-05-02T02:56:50.904Z,53.66
2023-05-02T02:57:50.891Z,54.25
2023-05-02T02:58:50.891Z,55.91
2023-05-02T02:59:50.883Z,61.93
2023-05-02T03:00:50.888Z,56.87
2023-05-02T03:01:50.872Z,55.20
2023-05-02T03:02:50.897Z,56.93
2023-05-02T03:03:50.921Z,56.40
2023-05-02T03:04:50.828Z,54.16
2023-05-02T03:05:50.830Z,53.02
2023-05-02T03:06:50.849Z,56.50
2023-05-02T03:07:50.823Z,56.26
2023-05-02T03:08:50.786Z,57.24
2023-05-02T03:09:50.782Z,61.84
2023-05-02T03:10:50.753Z,55.82
2023-05-02T03:11:50.740Z,65.41
2023-05-02T03:12:50.749Z,56.43
2023-05-02T03:13:50.739Z,57.04
2023-05-02T03:14:50.722Z,58.00
2023-05-02T03:15:50.730Z,56.72
2023-05-02T03:16:50.704Z,55.47
2023-05-02T03:18:22.603Z,55.59
2023-05-02T03:18:50.631Z,55.05
2023-05-02T03:19:50.613Z,57.55
2023-05-02T03:20:51.617Z,54.79
2023-05-02T03:21:50.622Z,67.40
2023-05-02T03:22:50.599Z,58.18
2023-05-02T03:23:50.588Z,56.30
2023-05-02T03:24:50.568Z,56.72
2023-05-02T03:25:50.559Z,57.66
2023-05-02T03:26:50.610Z,57.40
2023-05-02T03:27:50.644Z,58.03
2023-05-02T03:28:50.537Z,57.70
2023-05-02T03:29:50.527Z,58.58
2023-05-02T03:30:50.517Z,56.15
2023-05-02T03:31:50.635Z,56.21
2023-05-02T03:32:50.589Z,58.45
2023-05-02T03:33:50.484Z,57.43
2023-05-02T03:34:50.487Z,56.91
2023-05-02T03:35:50.471Z,56.10
2023-05-02T03:36:50.473Z,59.26
2023-05-02T03:37:50.480Z,58.08
2023-05-02T03:38:50.445Z,55.37
2023-05-02T03:39:50.424Z,57.22
2023-05-02T03:40:50.423Z,57.23
2023-05-02T03:41:50.458Z,55.35
2023-05-02T03:42:50.402Z,57.76
2023-05-02T03:43:50.380Z,62.80
2023-05-02T03:44:50.373Z,56.45
2023-05-02T03:45:50.369Z,58.82
2023-05-02T03:46:50.509Z,57.15
2023-05-02T03:47:50.421Z,56.60
2023-05-02T03:48:50.337Z,62.93
2023-05-02T03:49:50.335Z,55.24
2023-05-02T03:50:50.326Z,55.33
2023-05-02T03:51:50.310Z,54.63
2023-05-02T03:52:50.356Z,61.15
2023-05-02T03:53:50.282Z,53.52
2023-05-02T03:54:50.290Z,58.98
2023-05-02T03:55:50.270Z,57.82
2023-05-02T03:56:50.256Z,56.52
2023-05-02T03:57:50.243Z,55.56
2023-05-02T03:58:50.258Z,56.36
2023-05-02T03:59:50.228Z,57.44
2023-05-02T04:00:50.237Z,58.96
2023-05-02T04:01:50.357Z,57.79
2023-05-02T04:02:50.454Z,62.65
2023-05-02T04:03:50.219Z,55.81
2023-05-02T04:04:50.201Z,57.70
2023-05-02T04:05:50.189Z,56.71
2023-05-02T04:06:50.272Z,55.67
2023-05-02T04:07:50.149Z,57.12
2023-05-02T04:08:50.136Z,58.48
2023-05-02T04:09:50.160Z,58.17
2023-05-02T04:10:50.157Z,57.05
2023-05-02T04:11:50.106Z,61.87
2023-05-02T04:12:50.089Z,61.32
2023-05-02T04:13:52.587Z,60.40
2023-05-02T04:14:50.080Z,58.52
2023-05-02T04:15:50.182Z,57.56
2023-05-02T04:16:50.152Z,57.31
2023-05-02T04:17:50.086Z,57.04
2023-05-02T04:18:50.047Z,58.42
2023-05-02T04:19:50.030Z,58.29
2023-05-02T04:20:50.021Z,57.22
2023-05-02T04:21:50.030Z,58.81
2023-05-02T04:22:50.008Z,66.90
2023-05-02T04:23:49.987Z,55.05
2023-05-02T04:24:49.982Z,57.70
2023-05-02T04:25:49.973Z,58.77
2023-05-02T04:26:50.004Z,59.62
2023-05-02T04:27:50.030Z,58.52
2023-05-02T04:28:49.942Z,59.25
2023-05-02T04:29:50.927Z,65.83
2023-05-02T04:30:49.997Z,65.61
2023-05-02T04:31:49.954Z,60.13
2023-05-02T04:32:49.963Z,59.39
2023-05-02T04:33:49.906Z,59.30
2023-05-02T04:34:49.876Z,59.85
2023-05-02T04:35:49.882Z,59.13
2023-05-02T04:36:49.884Z,61.42
2023-05-02T04:37:49.857Z,59.44
2023-05-02T04:38:49.837Z,59.39
2023-05-02T04:39:49.828Z,60.47
2023-05-02T04:40:49.815Z,65.31
2023-05-02T04:41:49.894Z,60.39
2023-05-02T04:42:49.795Z,56.90
2023-05-02T04:43:49.805Z,57.28
2023-05-02T04:44:49.781Z,59.40
2023-05-02T04:45:49.808Z,59.10
2023-05-02T04:46:49.866Z,59.68
2023-05-02T04:47:49.961Z,59.33
2023-05-02T04:48:49.745Z,59.84
2023-05-02T04:49:49.719Z,60.53
2023-05-02T04:50:49.715Z,61.16
2023-05-02T04:51:49.722Z,62.13
2023-05-02T04:52:49.725Z,62.98
2023-05-02T04:53:49.689Z,61.18
2023-05-02T04:54:49.705Z,62.30
2023-05-02T04:55:49.696Z,58.60
2023-05-02T04:56:49.659Z,58.82
2023-05-02T04:57:49.682Z,59.36
2023-05-02T04:58:49.657Z,59.71
2023-05-02T04:59:49.653Z,59.35
2023-05-02T05:00:49.634Z,56.78
2023-05-02T05:01:49.636Z,58.33
2023-05-02T05:02:49.685Z,58.29
2023-05-02T05:03:49.753Z,59.82
2023-05-02T05:04:49.596Z,59.45
2023-05-02T05:05:49.568Z,63.89
2023-05-02T05:06:49.619Z,59.56
2023-05-02T05:07:49.552Z,59.67
2023-05-02T05:08:49.574Z,59.79
2023-05-02T05:09:51.179Z,58.47
2023-05-02T05:10:49.527Z,59.77
2023-05-02T05:11:49.513Z,60.08
2023-05-02T05:12:49.509Z,59.81
2023-05-02T05:13:49.512Z,61.64
2023-05-02T05:14:49.483Z,61.53
2023-05-02T05:15:49.523Z,60.12
2023-05-02T05:16:49.608Z,61.33
2023-05-02T05:17:49.469Z,61.19
2023-05-02T05:18:49.487Z,58.97
2023-05-02T05:19:49.455Z,59.60
2023-05-02T05:20:49.431Z,60.08
2023-05-02T05:21:49.432Z,58.65
2023-05-02T05:22:49.403Z,58.68
2023-05-02T05:23:49.407Z,60.48
2023-05-02T05:24:49.404Z,59.44
2023-05-02T05:25:49.382Z,59.76
2023-05-02T05:26:49.376Z,58.94
2023-05-02T05:27:49.355Z,59.46
2023-05-02T05:28:49.371Z,64.07
2023-05-02T05:29:49.367Z,57.52
2023-05-02T05:30:49.327Z,61.34
2023-05-02T05:31:49.416Z,58.92
2023-05-02T05:32:49.333Z,59.06
2023-05-02T05:33:49.398Z,60.53
2023-05-02T05:34:49.285Z,58.61
2023-05-02T05:35:49.274Z,58.82
2023-05-02T05:36:49.278Z,61.38
2023-05-02T05:37:49.249Z,58.27
2023-05-02T05:38:49.266Z,61.46
2023-05-02T05:39:49.231Z,58.66
2023-05-02T05:40:49.246Z,60.68
2023-05-02T05:41:49.203Z,59.37
2023-05-02T05:42:49.201Z,59.86
2023-05-02T05:43:49.240Z,59.27
2023-05-02T05:44:49.192Z,59.41
2023-05-02T05:45:49.168Z,58.41
2023-05-02T05:46:49.194Z,57.78
2023-05-02T05:47:49.963Z,59.73
2023-05-02T05:48:49.193Z,58.45
2023-05-02T05:49:49.150Z,60.23
2023-05-02T05:50:49.126Z,59.17
2023-05-02T05:51:49.132Z,60.31
2023-05-02T05:52:49.106Z,60.00
2023-05-02T05:53:49.103Z,61.67
2023-05-02T05:54:49.127Z,59.56
2023-05-02T05:55:49.077Z,59.58
2023-05-02T05:56:49.092Z,58.46
2023-05-02T05:57:49.051Z,58.76
2023-05-02T05:58:49.038Z,58.53
2023-05-02T05:59:49.030Z,58.80
2023-05-02T06:00:49.043Z,57.58
2023-05-02T06:01:49.033Z,59.47
2023-05-02T06:02:49.150Z,58.67
2023-05-02T06:03:49.066Z,58.46
2023-05-02T06:04:49.016Z,57.99
2023-05-02T06:05:48.980Z,59.66
2023-05-02T06:06:49.012Z,58.37
2023-05-02T06:07:49.041Z,59.46
2023-05-02T06:08:48.958Z,59.25
2023-05-02T06:09:48.954Z,59.30
2023-05-02T06:10:48.937Z,59.70
2023-05-02T06:11:48.920Z,61.10
2023-05-02T06:12:49.359Z,60.53
2023-05-02T06:13:49.907Z,58.98
2023-05-02T06:14:48.886Z,59.31
2023-05-02T06:15:48.979Z,57.07
2023-05-02T06:16:48.885Z,58.91
2023-05-02T06:17:48.930Z,59.60
2023-05-02T06:18:48.906Z,61.56
2023-05-02T06:19:48.840Z,59.97
2023-05-02T06:20:48.828Z,61.29
2023-05-02T06:21:48.816Z,60.93
2023-05-02T06:22:48.844Z,59.49
2023-05-02T06:23:48.878Z,59.70
2023-05-02T06:24:48.792Z,61.05
2023-05-02T06:25:48.785Z,57.83
2023-05-02T06:26:48.794Z,60.80
2023-05-02T06:27:48.773Z,57.42
2023-05-02T06:28:48.770Z,56.68
2023-05-02T06:29:48.774Z,55.81
2023-05-02T06:30:48.728Z,58.69
2023-05-02T06:31:48.750Z,63.22
2023-05-02T06:32:48.731Z,58.68
2023-05-02T06:33:48.739Z,59.21
2023-05-02T06:34:48.699Z,65.25
2023-05-02T06:35:48.693Z,61.04
2023-05-02T06:36:48.690Z,57.68
2023-05-02T06:37:48.660Z,58.55
2023-05-02T06:38:48.709Z,59.00
2023-05-02T06:39:48.672Z,57.91
2023-05-02T06:40:48.645Z,57.61
2023-05-02T06:41:48.620Z,57.58
2023-05-02T06:42:48.611Z,58.53
2023-05-02T06:43:48.629Z,57.54
2023-05-02T06:44:49.582Z,55.29
2023-05-02T06:45:48.619Z,56.95
2023-05-02T06:46:48.632Z,58.87
2023-05-02T06:47:48.587Z,54.49
2023-05-02T06:48:48.630Z,55.76
2023-05-02T06:49:48.541Z,57.94
2023-05-02T06:50:48.562Z,55.89
2023-05-02T06:51:48.519Z,58.71
2023-05-02T06:52:48.519Z,66.79
2023-05-02T06:53:48.552Z,56.30
2023-05-02T06:54:48.484Z,62.19
2023-05-02T06:55:48.501Z,57.21
2023-05-02T06:56:48.468Z,59.75
2023-05-02T06:57:48.457Z,66.62
2023-05-02T06:58:48.480Z,56.98
2023-05-02T06:59:48.525Z,56.14
2023-05-02T07:00:48.456Z,57.08
2023-05-02T07:01:48.420Z,54.79
2023-05-02T07:02:48.451Z,55.65
2023-05-02T07:03:48.493Z,55.69
2023-05-02T07:04:48.447Z,55.45
2023-05-02T07:05:48.377Z,58.47
2023-05-02T07:06:48.504Z,61.46
2023-05-02T07:07:48.375Z,55.41
2023-05-02T07:08:48.379Z,55.58
2023-05-02T07:09:48.338Z,55.15
2023-05-02T07:10:48.347Z,56.17
2023-05-02T07:11:48.314Z,54.62
2023-05-02T07:12:48.300Z,61.15
2023-05-02T07:13:48.320Z,56.95
2023-05-02T07:14:48.288Z,55.78
2023-05-02T07:15:48.289Z,57.28
2023-05-02T07:16:48.314Z,55.27
2023-05-02T07:17:48.275Z,54.66
2023-05-02T07:18:48.247Z,56.04
2023-05-02T07:19:48.258Z,54.68
2023-05-02T07:20:48.228Z,55.08
2023-05-02T07:21:48.216Z,53.74
2023-05-02T07:22:48.224Z,53.80
2023-05-02T07:23:48.204Z,56.32
2023-05-02T07:24:48.207Z,56.00
2023-05-02T07:25:48.181Z,53.09
2023-05-02T07:26:48.176Z,58.49
2023-05-02T07:27:48.172Z,53.04
2023-05-02T07:28:48.173Z,55.28
2023-05-02T07:29:48.139Z,54.01
2023-05-02T07:30:48.120Z,53.80
2023-05-02T07:31:48.208Z,54.13
2023-05-02T07:32:48.165Z,55.91
2023-05-02T07:33:48.115Z,54.52
2023-05-02T07:34:48.090Z,54.71
2023-05-02T07:35:48.119Z,55.94
2023-05-02T07:36:48.083Z,57.23
2023-05-02T07:37:48.080Z,54.54
2023-05-02T07:38:48.044Z,55.81
2023-05-02T07:39:48.038Z,56.97
2023-05-02T07:40:48.048Z,55.23
2023-05-02T07:41:48.020Z,56.01
2023-05-02T07:42:48.048Z,54.16
2023-05-02T07:43:48.026Z,56.50
2023-05-02T07:44:47.987Z,55.06
2023-05-02T07:45:48.028Z,54.38
2023-05-02T07:46:48.180Z,56.07
2023-05-02T07:47:47.973Z,55.43
2023-05-02T07:48:47.968Z,54.56
2023-05-02T07:49:47.945Z,57.26
2023-05-02T07:50:47.927Z,55.58
2023-05-02T07:51:47.944Z,55.26
2023-05-02T07:52:47.941Z,56.34
2023-05-02T07:53:47.906Z,57.45
2023-05-02T07:54:47.891Z,55.52
2023-05-02T07:55:47.908Z,59.04
2023-05-02T07:56:47.895Z,58.44
2023-05-02T07:57:47.881Z,57.88
2023-05-02T07:58:47.848Z,58.77
2023-05-02T07:59:47.845Z,63.76
2023-05-02T08:00:47.873Z,59.09
2023-05-02T08:01:47.839Z,59.35
2023-05-02T08:02:47.933Z,56.95
2023-05-02T08:03:48.040Z,58.62
2023-05-02T08:04:47.859Z,59.39
2023-05-02T08:05:47.775Z,55.36
2023-05-02T08:06:47.800Z,55.11
2023-05-02T08:07:47.755Z,56.15
2023-05-02T08:08:47.768Z,56.79
2023-05-02T08:09:47.739Z,57.13
2023-05-02T08:10:47.735Z,56.18
2023-05-02T08:11:47.737Z,56.02
2023-05-02T08:12:47.703Z,56.94
2023-05-02T08:13:47.700Z,57.71
2023-05-02T08:14:47.684Z,55.15
2023-05-02T08:15:47.906Z,59.05
2023-05-02T08:16:47.743Z,56.76
2023-05-02T08:17:47.721Z,54.10
2023-05-02T08:18:47.667Z,60.84
2023-05-02T08:19:47.639Z,61.33
2023-05-02T08:20:47.765Z,59.10
2023-05-02T08:21:47.625Z,58.43
2023-05-02T08:22:47.607Z,60.62
2023-05-02T08:23:47.607Z,57.73
2023-05-02T08:24:47.639Z,59.50
2023-05-02T08:25:47.602Z,57.27
2023-05-02T08:26:47.580Z,58.25
2023-05-02T08:27:47.561Z,58.71
2023-05-02T08:28:47.573Z,55.58
2023-05-02T08:29:47.546Z,57.06
2023-05-02T08:30:47.536Z,56.27
2023-05-02T08:31:47.550Z,55.20
2023-05-02T08:32:47.621Z,55.63
2023-05-02T08:33:47.520Z,53.68
2023-05-02T08:34:47.528Z,56.91
2023-05-02T08:35:47.511Z,54.77
2023-05-02T08:36:47.496Z,54.98
2023-05-02T08:37:47.507Z,54.01
2023-05-02T08:38:47.507Z,55.57
2023-05-02T08:39:47.468Z,57.97
2023-05-02T08:40:47.445Z,57.40
2023-05-02T08:41:47.454Z,57.59
2023-05-02T08:42:47.424Z,53.24
2023-05-02T08:43:47.435Z,55.84
2023-05-02T08:44:47.393Z,55.88
2023-05-02T08:45:47.383Z,60.93
2023-05-02T08:46:47.427Z,55.18
2023-05-02T08:47:47.409Z,55.27
2023-05-02T08:48:47.360Z,53.44
2023-05-02T08:49:47.342Z,54.30
2023-05-02T08:50:47.384Z,53.98
2023-05-02T08:51:47.350Z,53.11
2023-05-02T08:52:47.310Z,56.46
2023-05-02T08:53:47.304Z,56.81
2023-05-02T08:54:47.363Z,54.87
2023-05-02T08:55:47.278Z,56.73
2023-05-02T08:56:47.290Z,57.29
2023-05-02T08:57:47.279Z,54.50
2023-05-02T08:58:47.252Z,55.78
2023-05-02T08:59:47.366Z,56.95
2023-05-02T09:00:47.261Z,55.52
2023-05-02T09:01:47.284Z,56.97
2023-05-02T09:02:47.306Z,57.08
2023-05-02T09:03:47.232Z,55.57
2023-05-02T09:04:47.262Z,53.28
2023-05-02T09:05:47.180Z,53.71
2023-05-02T09:06:47.257Z,62.85
2023-05-02T09:07:47.174Z,55.77
2023-05-02T09:08:47.172Z,55.59
2023-05-02T09:09:47.139Z,58.94
2023-05-02T09:10:47.135Z,57.25
2023-05-02T09:11:47.126Z,54.95
2023-05-02T09:12:47.114Z,54.44
2023-05-02T09:13:47.122Z,55.81
2023-05-02T09:14:47.195Z,55.42
2023-05-02T09:15:47.077Z,58.61
2023-05-02T09:16:47.087Z,56.79
2023-05-02T09:18:19.009Z,61.45
2023-05-02T09:18:47.074Z,57.97
2023-05-02T09:19:47.069Z,56.87
2023-05-02T09:20:47.092Z,58.01
2023-05-02T09:21:47.019Z,55.58
2023-05-02T09:22:47.013Z,57.43
2023-05-02T09:23:47.046Z,57.13
2023-05-02T09:24:46.992Z,57.38
2023-05-02T09:25:46.993Z,56.22
2023-05-02T09:26:47.005Z,54.78
2023-05-02T09:27:47.010Z,55.78
2023-05-02T09:28:46.963Z,55.54
2023-05-02T09:29:46.952Z,57.00
2023-05-02T09:30:47.062Z,57.63
2023-05-02T09:31:55.664Z,59.03
2023-05-02T09:32:48.969Z,56.97
2023-05-02T09:33:46.927Z,58.33
2023-05-02T09:34:46.930Z,61.28
2023-05-02T09:35:47.887Z,59.21
2023-05-02T09:36:46.918Z,56.88
2023-05-02T09:37:46.869Z,55.16
2023-05-02T09:38:46.912Z,57.05
2023-05-02T09:39:46.853Z,58.17
2023-05-02T09:40:46.891Z,60.00
2023-05-02T09:41:46.875Z,59.53
2023-05-02T09:42:46.854Z,59.65
2023-05-02T09:43:46.816Z,57.51
2023-05-02T09:44:46.792Z,57.76
2023-05-02T09:45:46.816Z,56.47
2023-05-02T09:46:47.798Z,56.42
2023-05-02T09:47:46.792Z,59.06
2023-05-02T09:48:46.785Z,58.52
2023-05-02T09:49:47.002Z,58.55
2023-05-02T09:50:46.733Z,59.55
2023-05-02T09:51:46.769Z,65.17
2023-05-02T09:52:46.761Z,58.04
2023-05-02T09:53:46.720Z,57.67
2023-05-02T09:54:46.986Z,63.87
2023-05-02T09:55:46.708Z,56.84
2023-05-02T09:56:46.681Z,58.34
2023-05-02T09:57:46.700Z,57.90
2023-05-02T09:58:46.787Z,58.23
2023-05-02T09:59:46.648Z,57.64
2023-05-02T10:00:46.664Z,61.73
2023-05-02T10:01:46.658Z,58.50
2023-05-02T10:02:46.716Z,55.18
2023-05-02T10:03:46.676Z,59.62
2023-05-02T10:04:46.649Z,55.69
2023-05-02T10:05:46.637Z,56.66
2023-05-02T10:06:46.731Z,55.05
2023-05-02T10:07:46.654Z,56.97
2023-05-02T10:08:46.563Z,57.81
2023-05-02T10:09:46.618Z,59.33
2023-05-02T10:10:46.557Z,56.29
2023-05-02T10:11:46.550Z,61.13
2023-05-02T10:12:46.536Z,58.42
2023-05-02T10:13:46.581Z,57.52
2023-05-02T10:14:46.508Z,59.24
2023-05-02T10:15:46.546Z,61.16
2023-05-02T10:16:46.495Z,59.36
2023-05-02T10:17:46.549Z,55.71
2023-05-02T10:18:46.484Z,57.24
2023-05-02T10:19:46.440Z,58.82
2023-05-02T10:20:46.473Z,59.10
2023-05-02T10:21:46.462Z,58.82
2023-05-02T10:22:46.741Z,57.87
2023-05-02T10:23:46.480Z,60.01
2023-05-02T10:24:46.452Z,59.00
2023-05-02T10:25:46.431Z,58.17
2023-05-02T10:26:46.391Z,57.54
2023-05-02T10:27:46.383Z,57.81
2023-05-02T10:28:46.352Z,56.54
2023-05-02T10:29:46.382Z,54.32
2023-05-02T10:30:46.423Z,59.35
2023-05-02T10:31:46.399Z,64.43
2023-05-02T10:32:46.359Z,64.96
2023-05-02T10:33:46.332Z,64.06
2023-05-02T10:34:46.307Z,63.65
2023-05-02T10:35:46.344Z,62.71
2023-05-02T10:36:46.286Z,63.21
2023-05-02T10:37:46.295Z,57.68
2023-05-02T10:38:46.267Z,55.66
2023-05-02T10:39:46.260Z,56.49
2023-05-02T10:40:46.283Z,58.26
2023-05-02T10:41:46.256Z,57.42
2023-05-02T10:42:46.303Z,60.03
2023-05-02T10:43:46.217Z,56.77
2023-05-02T10:44:46.231Z,58.11
2023-05-02T10:45:46.220Z,56.55
2023-05-02T10:46:46.214Z,56.42
2023-05-02T10:47:46.230Z,56.30
2023-05-02T10:48:46.177Z,57.69
2023-05-02T10:49:46.169Z,58.09
2023-05-02T10:50:46.132Z,57.56
2023-05-02T10:51:46.172Z,57.20
2023-05-02T10:52:46.133Z,57.28
2023-05-02T10:53:46.178Z,56.74
2023-05-02T10:54:46.386Z,57.79
2023-05-02T10:55:46.116Z,55.41
2023-05-02T10:56:46.121Z,56.76
2023-05-02T10:57:46.062Z,59.36
2023-05-02T10:58:46.082Z,58.52
2023-05-02T10:59:46.068Z,60.31
2023-05-02T11:00:46.134Z,62.99
2023-05-02T11:01:46.113Z,57.01
2023-05-02T11:02:46.129Z,56.76
2023-05-02T11:03:46.005Z,62.77
2023-05-02T11:04:46.011Z,57.63
2023-05-02T11:05:45.986Z,57.05
2023-05-02T11:06:46.035Z,56.83
2023-05-02T11:07:45.984Z,56.82
2023-05-02T11:08:45.963Z,62.44
2023-05-02T11:09:45.968Z,57.15
2023-05-02T11:10:45.957Z,58.23
2023-05-02T11:11:45.930Z,54.92
2023-05-02T11:12:45.926Z,54.39
2023-05-02T11:13:45.903Z,58.69
2023-05-02T11:14:45.929Z,54.05
2023-05-02T11:15:45.923Z,57.92
2023-05-02T11:16:45.928Z,55.49
2023-05-02T11:17:45.883Z,56.21
2023-05-02T11:18:45.874Z,57.01
2023-05-02T11:19:45.917Z,57.34
2023-05-02T11:20:45.911Z,54.82
2023-05-02T11:21:45.832Z,56.66
2023-05-02T11:22:45.803Z,56.58
2023-05-02T11:23:45.810Z,56.50
2023-05-02T11:24:45.813Z,56.47
2023-05-02T11:25:45.791Z,54.99
2023-05-02T11:26:45.801Z,58.06
2023-05-02T11:27:45.788Z,55.25
2023-05-02T11:28:45.756Z,55.93
2023-05-02T11:29:45.776Z,57.72
2023-05-02T11:30:45.722Z,55.39
2023-05-02T11:31:45.758Z,58.33
2023-05-02T11:32:45.839Z,56.95
2023-05-02T11:33:45.698Z,55.77
2023-05-02T11:34:45.716Z,56.25
2023-05-02T11:35:46.710Z,56.42
2023-05-02T11:36:45.684Z,54.09
2023-05-02T11:37:45.662Z,59.30
2023-05-02T11:38:45.656Z,59.72
2023-05-02T11:39:45.635Z,55.41
2023-05-02T11:40:45.636Z,58.33
2023-05-02T11:41:45.639Z,57.08
2023-05-02T11:42:45.622Z,55.32
2023-05-02T11:43:45.650Z,55.79
2023-05-02T11:44:45.633Z,56.94
2023-05-02T11:45:45.641Z,56.26
2023-05-02T11:46:45.744Z,55.72
2023-05-02T11:47:45.633Z,55.75
2023-05-02T11:48:45.553Z,54.67
2023-05-02T11:49:45.548Z,56.56
2023-05-02T11:50:49.794Z,55.09
2023-05-02T11:51:46.533Z,56.37
2023-05-02T11:52:45.503Z,56.60
2023-05-02T11:53:46.519Z,56.86
2023-05-02T11:54:45.492Z,57.16
2023-05-02T11:55:45.509Z,55.29
2023-05-02T11:56:45.532Z,56.51
2023-05-02T11:57:45.493Z,55.78
2023-05-02T11:58:45.478Z,58.09
2023-05-02T11:59:45.483Z,61.51
2023-05-02T12:00:45.427Z,57.08
2023-05-02T12:01:45.439Z,55.70
2023-05-02T12:02:45.549Z,56.54
2023-05-02T12:03:45.819Z,55.87
2023-05-02T12:04:45.392Z,56.09
2023-05-02T12:05:45.438Z,56.68
2023-05-02T12:06:45.466Z,55.52
2023-05-02T12:07:45.438Z,57.25
2023-05-02T12:08:45.411Z,59.74
2023-05-02T12:09:45.411Z,56.18
2023-05-02T12:10:45.341Z,57.72
2023-05-02T12:11:45.398Z,57.99
2023-05-02T12:12:45.329Z,55.48
2023-05-02T12:13:45.344Z,55.22
2023-05-02T12:14:45.290Z,57.97
2023-05-02T12:15:45.313Z,55.65
2023-05-02T12:16:45.372Z,60.46
2023-05-02T12:17:45.339Z,58.90
2023-05-02T12:18:45.282Z,57.97
2023-05-02T12:19:45.286Z,56.57
2023-05-02T12:20:45.236Z,58.46
2023-05-02T12:21:45.270Z,58.21
2023-05-02T12:22:45.241Z,59.48
2023-05-02T12:23:45.237Z,59.71
2023-05-02T12:24:45.201Z,57.55
2023-05-02T12:25:45.220Z,59.40
2023-05-02T12:26:45.199Z,61.37
2023-05-02T12:27:45.175Z,58.59
2023-05-02T12:28:45.142Z,59.85
2023-05-02T12:29:45.205Z,57.47
2023-05-02T12:30:45.126Z,57.20
2023-05-02T12:31:45.151Z,60.54
2023-05-02T12:32:45.180Z,59.25
2023-05-02T12:33:46.188Z,59.38
2023-05-02T12:34:45.109Z,61.73
2023-05-02T12:35:45.206Z,65.50
2023-05-02T12:36:45.094Z,58.11
2023-05-02T12:37:45.672Z,60.28
2023-05-02T12:38:45.058Z,58.33
2023-05-02T12:39:45.050Z,59.93
2023-05-02T12:40:45.015Z,59.02
2023-05-02T12:41:45.047Z,58.88
2023-05-02T12:42:45.029Z,63.14
2023-05-02T12:43:45.007Z,60.36
2023-05-02T12:44:45.027Z,59.92
2023-05-02T12:45:44.980Z,59.19
2023-05-02T12:46:45.046Z,59.27
2023-05-02T12:47:45.019Z,65.41
2023-05-02T12:48:46.236Z,58.84
2023-05-02T12:49:44.919Z,59.44
2023-05-02T12:50:44.988Z,59.51
2023-05-02T12:51:44.920Z,59.58
2023-05-02T12:52:44.961Z,58.81